sensor_id;sensor_type;location;lat;lon;timestamp;temperature;humidity
55173;DHT22;41061;52.822;6.860;2023-04-15T00:01:59;6.70;99.90
55173;DHT22;41061;52.822;6.860;2023-04-15T00:04:26;6.70;99.90
55173;DHT22;41061;52.822;6.860;2023-04-15T00:06:52;6.60;99.90
55173;DHT22;41061;52.822;6.860;2023-04-15T00:09:18;6.70;99.90
55173;DHT22;41061;52.822;6.860;2023-04-15T00:11:44;6.50;99.90
55173;DHT22;41061;52.822;6.860;2023-04-15T00:14:12;6.40;99.90
55173;DHT22;41061;52.822;6.860;2023-04-15T00:16:37;6.80;99.90
55173;DHT22;41061;52.822;6.860;2023-04-15T00:19:03;7.00;99.90
55173;DHT22;41061;52.822;6.860;2023-04-15T00:21:29;6.80;99.90
55173;DHT22;41061;52.822;6.860;2023-04-15T00:23:56;6.90;99.90
55173;DHT22;41061;52.822;6.860;2023-04-15T00:26:21;6.60;99.90
55173;DHT22;41061;52.822;6.860;2023-04-15T00:28:47;6.80;99.90
55173;DHT22;41061;52.822;6.860;2023-04-15T00:31:13;6.70;99.90
55173;DHT22;41061;52.822;6.860;2023-04-15T00:33:40;6.80;99.90
55173;DHT22;41061;52.822;6.860;2023-04-15T00:36:06;6.60;99.90
55173;DHT22;41061;52.822;6.860;2023-04-15T00:38:32;6.60;99.90
55173;DHT22;41061;52.822;6.860;2023-04-15T00:40:58;7.10;99.90
55173;DHT22;41061;52.822;6.860;2023-04-15T00:43:24;6.60;99.90
55173;DHT22;41061;52.822;6.860;2023-04-15T00:45:52;6.70;99.90
55173;DHT22;41061;52.822;6.860;2023-04-15T00:48:19;6.70;99.90
55173;DHT22;41061;52.822;6.860;2023-04-15T00:50:45;6.60;99.90
55173;DHT22;41061;52.822;6.860;2023-04-15T00:53:11;6.50;99.90
55173;DHT22;41061;52.822;6.860;2023-04-15T00:55:36;6.50;99.90
55173;DHT22;41061;52.822;6.860;2023-04-15T01:00:30;6.10;99.90
55173;DHT22;41061;52.822;6.860;2023-04-15T01:02:56;6.30;99.90
55173;DHT22;41061;52.822;6.860;2023-04-15T01:05:22;6.30;99.90
55173;DHT22;41061;52.822;6.860;2023-04-15T01:07:48;6.30;99.90
55173;DHT22;41061;52.822;6.860;2023-04-15T01:10:13;6.20;99.90
55173;DHT22;41061;52.822;6.860;2023-04-15T01:17:32;6.10;99.90
55173;DHT22;41061;52.822;6.860;2023-04-15T01:19:58;6.00;99.90
55173;DHT22;41061;52.822;6.860;2023-04-15T01:22:25;6.30;99.90
55173;DHT22;41061;52.822;6.860;2023-04-15T01:25:04;6.30;99.90
55173;DHT22;41061;52.822;6.860;2023-04-15T01:37:23;6.00;99.90
55173;DHT22;41061;52.822;6.860;2023-04-15T01:39:49;6.30;99.90
55173;DHT22;41061;52.822;6.860;2023-04-15T01:42:15;6.30;99.90
55173;DHT22;41061;52.822;6.860;2023-04-15T01:44:41;6.20;99.90
55173;DHT22;41061;52.822;6.860;2023-04-15T01:47:07;6.20;99.90
55173;DHT22;41061;52.822;6.860;2023-04-15T01:49:33;6.50;99.90
55173;DHT22;41061;52.822;6.860;2023-04-15T01:51:58;6.10;99.90
55173;DHT22;41061;52.822;6.860;2023-04-15T01:54:25;5.90;99.90
55173;DHT22;41061;52.822;6.860;2023-04-15T01:56:52;5.80;99.90
55173;DHT22;41061;52.822;6.860;2023-04-15T02:14:03;5.90;99.90
55173;DHT22;41061;52.822;6.860;2023-04-15T02:16:30;5.70;99.90
55173;DHT22;41061;52.822;6.860;2023-04-15T02:18:56;5.70;99.90
55173;DHT22;41061;52.822;6.860;2023-04-15T02:21:22;5.60;99.90
55173;DHT22;41061;52.822;6.860;2023-04-15T02:28:40;6.00;99.90
55173;DHT22;41061;52.822;6.860;2023-04-15T02:31:06;5.60;99.90
55173;DHT22;41061;52.822;6.860;2023-04-15T02:33:32;5.60;99.90
55173;DHT22;41061;52.822;6.860;2023-04-15T02:35:58;5.50;99.90
55173;DHT22;41061;52.822;6.860;2023-04-15T02:38:24;5.20;99.90
55173;DHT22;41061;52.822;6.860;2023-04-15T02:40:49;5.40;99.90
55173;DHT22;41061;52.822;6.860;2023-04-15T02:43:16;5.20;99.90
55173;DHT22;41061;52.822;6.860;2023-04-15T02:45:42;5.20;99.90
55173;DHT22;41061;52.822;6.860;2023-04-15T02:48:08;5.10;99.90
55173;DHT22;41061;52.822;6.860;2023-04-15T02:50:34;5.20;99.90
55173;DHT22;41061;52.822;6.860;2023-04-15T02:53:00;5.20;99.90
55173;DHT22;41061;52.822;6.860;2023-04-15T02:55:27;5.60;99.90
55173;DHT22;41061;52.822;6.860;2023-04-15T02:57:52;5.40;99.90
55173;DHT22;41061;52.822;6.860;2023-04-15T03:00:18;5.50;99.90
55173;DHT22;41061;52.822;6.860;2023-04-15T03:02:45;5.20;99.90
55173;DHT22;41061;52.822;6.860;2023-04-15T03:05:12;5.20;99.90
55173;DHT22;41061;52.822;6.860;2023-04-15T03:07:38;5.20;99.90
55173;DHT22;41061;52.822;6.860;2023-04-15T03:10:06;5.20;99.90
55173;DHT22;41061;52.822;6.860;2023-04-15T03:12:32;5.20;99.90
55173;DHT22;41061;52.822;6.860;2023-04-15T03:14:57;5.20;99.90
55173;DHT22;41061;52.822;6.860;2023-04-15T03:17:24;5.10;99.90
55173;DHT22;41061;52.822;6.860;2023-04-15T03:19:50;5.00;99.90
55173;DHT22;41061;52.822;6.860;2023-04-15T03:22:16;5.10;99.90
55173;DHT22;41061;52.822;6.860;2023-04-15T03:24:41;5.10;99.90
55173;DHT22;41061;52.822;6.860;2023-04-15T03:27:07;5.10;99.90
55173;DHT22;41061;52.822;6.860;2023-04-15T03:29:33;5.10;99.90
55173;DHT22;41061;52.822;6.860;2023-04-15T03:31:59;5.10;99.90
55173;DHT22;41061;52.822;6.860;2023-04-15T03:34:25;5.00;99.90
55173;DHT22;41061;52.822;6.860;2023-04-15T03:36:51;5.00;99.90
55173;DHT22;41061;52.822;6.860;2023-04-15T03:39:16;5.00;99.90
55173;DHT22;41061;52.822;6.860;2023-04-15T03:41:42;5.00;99.90
55173;DHT22;41061;52.822;6.860;2023-04-15T03:44:08;5.00;99.90
55173;DHT22;41061;52.822;6.860;2023-04-15T03:46:33;4.90;99.90
55173;DHT22;41061;52.822;6.860;2023-04-15T03:48:59;4.90;99.90
55173;DHT22;41061;52.822;6.860;2023-04-15T03:51:25;4.70;99.90
55173;DHT22;41061;52.822;6.860;2023-04-15T03:53:50;4.80;99.90
55173;DHT22;41061;52.822;6.860;2023-04-15T03:56:16;4.80;99.90
55173;DHT22;41061;52.822;6.860;2023-04-15T03:58:42;4.80;99.90
55173;DHT22;41061;52.822;6.860;2023-04-15T04:01:08;4.80;99.90
55173;DHT22;41061;52.822;6.860;2023-04-15T04:03:34;4.90;99.90
55173;DHT22;41061;52.822;6.860;2023-04-15T04:06:01;4.60;99.90
55173;DHT22;41061;52.822;6.860;2023-04-15T04:08:27;5.20;99.90
55173;DHT22;41061;52.822;6.860;2023-04-15T04:10:53;4.90;99.90
55173;DHT22;41061;52.822;6.860;2023-04-15T04:13:19;4.90;99.90
55173;DHT22;41061;52.822;6.860;2023-04-15T04:15:45;4.70;99.90
55173;DHT22;41061;52.822;6.860;2023-04-15T04:18:10;4.70;99.90
55173;DHT22;41061;52.822;6.860;2023-04-15T04:20:36;4.60;99.90
55173;DHT22;41061;52.822;6.860;2023-04-15T04:23:02;4.90;99.90
55173;DHT22;41061;52.822;6.860;2023-04-15T04:25:28;4.90;99.90
55173;DHT22;41061;52.822;6.860;2023-04-15T04:27:54;4.70;99.90
55173;DHT22;41061;52.822;6.860;2023-04-15T04:30:19;5.30;99.90
55173;DHT22;41061;52.822;6.860;2023-04-15T04:32:45;4.60;99.90
55173;DHT22;41061;52.822;6.860;2023-04-15T04:35:10;4.70;99.90
55173;DHT22;41061;52.822;6.860;2023-04-15T04:37:36;4.70;99.90
55173;DHT22;41061;52.822;6.860;2023-04-15T04:40:02;4.70;99.90
55173;DHT22;41061;52.822;6.860;2023-04-15T04:42:28;4.60;99.90
55173;DHT22;41061;52.822;6.860;2023-04-15T04:44:53;4.70;99.90
55173;DHT22;41061;52.822;6.860;2023-04-15T04:47:19;4.60;99.90
55173;DHT22;41061;52.822;6.860;2023-04-15T04:49:45;5.10;99.90
55173;DHT22;41061;52.822;6.860;2023-04-15T04:52:10;4.60;99.90
55173;DHT22;41061;52.822;6.860;2023-04-15T04:54:36;4.60;99.90
55173;DHT22;41061;52.822;6.860;2023-04-15T04:57:01;4.50;99.90
55173;DHT22;41061;52.822;6.860;2023-04-15T04:59:27;4.60;99.90
55173;DHT22;41061;52.822;6.860;2023-04-15T05:01:53;4.60;99.90
55173;DHT22;41061;52.822;6.860;2023-04-15T05:04:18;4.40;99.90
55173;DHT22;41061;52.822;6.860;2023-04-15T05:06:44;4.60;99.90
55173;DHT22;41061;52.822;6.860;2023-04-15T05:09:10;4.60;99.90
55173;DHT22;41061;52.822;6.860;2023-04-15T05:11:35;4.40;99.90
55173;DHT22;41061;52.822;6.860;2023-04-15T05:14:01;4.50;99.90
55173;DHT22;41061;52.822;6.860;2023-04-15T05:16:27;4.60;99.90
55173;DHT22;41061;52.822;6.860;2023-04-15T05:18:52;4.50;99.90
55173;DHT22;41061;52.822;6.860;2023-04-15T05:21:19;4.60;99.90
55173;DHT22;41061;52.822;6.860;2023-04-15T05:23:45;4.80;99.90
55173;DHT22;41061;52.822;6.860;2023-04-15T05:26:10;4.70;99.90
55173;DHT22;41061;52.822;6.860;2023-04-15T05:28:36;5.20;99.90
55173;DHT22;41061;52.822;6.860;2023-04-15T05:31:02;4.70;99.90
55173;DHT22;41061;52.822;6.860;2023-04-15T05:33:27;4.70;99.90
55173;DHT22;41061;52.822;6.860;2023-04-15T05:35:53;4.60;99.90
55173;DHT22;41061;52.822;6.860;2023-04-15T05:38:19;5.00;99.90
55173;DHT22;41061;52.822;6.860;2023-04-15T05:40:45;4.90;99.90
55173;DHT22;41061;52.822;6.860;2023-04-15T05:43:10;4.90;99.90
55173;DHT22;41061;52.822;6.860;2023-04-15T05:45:36;4.90;99.90
55173;DHT22;41061;52.822;6.860;2023-04-15T05:48:02;4.80;99.90
55173;DHT22;41061;52.822;6.860;2023-04-15T05:50:27;4.90;99.90
55173;DHT22;41061;52.822;6.860;2023-04-15T05:52:53;5.10;99.90
55173;DHT22;41061;52.822;6.860;2023-04-15T05:55:18;4.90;99.90
55173;DHT22;41061;52.822;6.860;2023-04-15T05:57:44;5.10;99.90
55173;DHT22;41061;52.822;6.860;2023-04-15T06:00:11;5.10;99.90
55173;DHT22;41061;52.822;6.860;2023-04-15T06:02:37;5.30;99.90
55173;DHT22;41061;52.822;6.860;2023-04-15T06:05:03;5.50;99.90
55173;DHT22;41061;52.822;6.860;2023-04-15T06:07:35;5.70;99.90
55173;DHT22;41061;52.822;6.860;2023-04-15T06:10:02;5.70;99.90
55173;DHT22;41061;52.822;6.860;2023-04-15T06:12:28;5.80;99.90
55173;DHT22;41061;52.822;6.860;2023-04-15T06:14:53;6.10;99.90
55173;DHT22;41061;52.822;6.860;2023-04-15T06:17:19;6.20;99.90
55173;DHT22;41061;52.822;6.860;2023-04-15T06:19:45;6.40;99.90
55173;DHT22;41061;52.822;6.860;2023-04-15T06:22:10;6.50;99.90
55173;DHT22;41061;52.822;6.860;2023-04-15T06:24:36;6.50;99.90
55173;DHT22;41061;52.822;6.860;2023-04-15T06:27:02;6.60;99.90
55173;DHT22;41061;52.822;6.860;2023-04-15T06:29:28;6.70;99.90
55173;DHT22;41061;52.822;6.860;2023-04-15T06:31:53;6.70;99.90
55173;DHT22;41061;52.822;6.860;2023-04-15T06:34:21;6.90;99.90
55173;DHT22;41061;52.822;6.860;2023-04-15T06:41:39;6.90;99.90
55173;DHT22;41061;52.822;6.860;2023-04-15T06:44:05;6.90;99.90
55173;DHT22;41061;52.822;6.860;2023-04-15T06:46:31;7.20;99.90
55173;DHT22;41061;52.822;6.860;2023-04-15T06:48:57;7.00;99.90
55173;DHT22;41061;52.822;6.860;2023-04-15T06:51:22;7.00;99.90
55173;DHT22;41061;52.822;6.860;2023-04-15T06:53:48;7.10;99.90
55173;DHT22;41061;52.822;6.860;2023-04-15T06:56:14;7.10;99.90
55173;DHT22;41061;52.822;6.860;2023-04-15T06:58:40;7.10;99.90
55173;DHT22;41061;52.822;6.860;2023-04-15T07:01:05;7.20;99.90
55173;DHT22;41061;52.822;6.860;2023-04-15T07:03:31;7.20;99.90
55173;DHT22;41061;52.822;6.860;2023-04-15T07:05:57;7.30;99.90
55173;DHT22;41061;52.822;6.860;2023-04-15T07:08:23;7.40;99.90
55173;DHT22;41061;52.822;6.860;2023-04-15T07:10:49;7.40;99.90
55173;DHT22;41061;52.822;6.860;2023-04-15T07:13:17;7.30;99.90
55173;DHT22;41061;52.822;6.860;2023-04-15T07:15:42;7.50;99.90
55173;DHT22;41061;52.822;6.860;2023-04-15T07:18:08;7.50;99.90
55173;DHT22;41061;52.822;6.860;2023-04-15T07:20:34;7.60;99.90
55173;DHT22;41061;52.822;6.860;2023-04-15T07:23:00;7.60;99.90
55173;DHT22;41061;52.822;6.860;2023-04-15T07:25:25;7.70;99.90
55173;DHT22;41061;52.822;6.860;2023-04-15T07:27:52;7.80;99.90
55173;DHT22;41061;52.822;6.860;2023-04-15T07:30:18;7.90;99.90
55173;DHT22;41061;52.822;6.860;2023-04-15T07:32:44;8.00;99.90
55173;DHT22;41061;52.822;6.860;2023-04-15T07:35:10;8.00;99.90
55173;DHT22;41061;52.822;6.860;2023-04-15T07:37:36;8.00;99.90
55173;DHT22;41061;52.822;6.860;2023-04-15T07:40:02;8.10;99.90
55173;DHT22;41061;52.822;6.860;2023-04-15T07:42:29;8.10;99.90
55173;DHT22;41061;52.822;6.860;2023-04-15T07:44:55;8.20;99.90
55173;DHT22;41061;52.822;6.860;2023-04-15T07:47:21;8.30;99.90
55173;DHT22;41061;52.822;6.860;2023-04-15T07:49:46;8.70;99.90
55173;DHT22;41061;52.822;6.860;2023-04-15T07:52:12;8.40;99.90
55173;DHT22;41061;52.822;6.860;2023-04-15T07:54:37;8.30;99.90
55173;DHT22;41061;52.822;6.860;2023-04-15T07:57:04;8.50;99.90
55173;DHT22;41061;52.822;6.860;2023-04-15T07:59:29;8.50;99.90
55173;DHT22;41061;52.822;6.860;2023-04-15T08:01:57;8.70;99.90
55173;DHT22;41061;52.822;6.860;2023-04-15T08:04:23;8.90;99.90
55173;DHT22;41061;52.822;6.860;2023-04-15T08:06:49;8.80;99.90
55173;DHT22;41061;52.822;6.860;2023-04-15T08:09:15;9.00;99.90
55173;DHT22;41061;52.822;6.860;2023-04-15T08:11:41;9.30;99.90
55173;DHT22;41061;52.822;6.860;2023-04-15T08:14:06;9.10;99.90
55173;DHT22;41061;52.822;6.860;2023-04-15T08:16:32;9.00;99.90
55173;DHT22;41061;52.822;6.860;2023-04-15T08:18:58;8.90;99.90
55173;DHT22;41061;52.822;6.860;2023-04-15T08:21:24;9.10;99.90
55173;DHT22;41061;52.822;6.860;2023-04-15T08:23:50;9.00;99.90
55173;DHT22;41061;52.822;6.860;2023-04-15T08:26:17;9.20;99.90
55173;DHT22;41061;52.822;6.860;2023-04-15T08:28:44;9.20;99.90
55173;DHT22;41061;52.822;6.860;2023-04-15T08:31:14;9.30;99.90
55173;DHT22;41061;52.822;6.860;2023-04-15T08:33:43;9.30;99.90
55173;DHT22;41061;52.822;6.860;2023-04-15T08:36:10;9.30;99.90
55173;DHT22;41061;52.822;6.860;2023-04-15T08:38:36;9.40;99.90
55173;DHT22;41061;52.822;6.860;2023-04-15T08:41:06;9.60;99.90
55173;DHT22;41061;52.822;6.860;2023-04-15T08:43:33;9.60;99.90
55173;DHT22;41061;52.822;6.860;2023-04-15T08:45:59;9.60;99.90
55173;DHT22;41061;52.822;6.860;2023-04-15T08:48:28;9.90;99.90
55173;DHT22;41061;52.822;6.860;2023-04-15T08:50:54;9.70;99.90
55173;DHT22;41061;52.822;6.860;2023-04-15T08:53:20;9.70;99.90
55173;DHT22;41061;52.822;6.860;2023-04-15T08:55:51;9.60;99.90
55173;DHT22;41061;52.822;6.860;2023-04-15T08:58:18;9.60;99.90
55173;DHT22;41061;52.822;6.860;2023-04-15T09:00:44;9.50;99.90
55173;DHT22;41061;52.822;6.860;2023-04-15T09:03:10;9.50;99.90
55173;DHT22;41061;52.822;6.860;2023-04-15T09:05:36;9.50;99.90
55173;DHT22;41061;52.822;6.860;2023-04-15T09:08:03;9.50;99.90
55173;DHT22;41061;52.822;6.860;2023-04-15T09:10:32;9.40;99.90
55173;DHT22;41061;52.822;6.860;2023-04-15T09:12:58;9.40;99.90
55173;DHT22;41061;52.822;6.860;2023-04-15T09:15:24;9.70;99.90
55173;DHT22;41061;52.822;6.860;2023-04-15T09:17:52;9.60;99.90
55173;DHT22;41061;52.822;6.860;2023-04-15T09:20:17;9.60;99.90
55173;DHT22;41061;52.822;6.860;2023-04-15T09:22:44;9.40;99.90
55173;DHT22;41061;52.822;6.860;2023-04-15T09:27:50;9.50;99.90
55173;DHT22;41061;52.822;6.860;2023-04-15T09:30:16;9.40;99.90
55173;DHT22;41061;52.822;6.860;2023-04-15T09:32:53;9.40;99.90
55173;DHT22;41061;52.822;6.860;2023-04-15T09:35:20;9.40;99.90
55173;DHT22;41061;52.822;6.860;2023-04-15T09:37:47;9.60;99.90
55173;DHT22;41061;52.822;6.860;2023-04-15T09:40:13;9.40;99.90
55173;DHT22;41061;52.822;6.860;2023-04-15T09:42:59;9.40;99.90
55173;DHT22;41061;52.822;6.860;2023-04-15T09:45:26;9.30;99.90
55173;DHT22;41061;52.822;6.860;2023-04-15T09:47:52;9.30;99.90
55173;DHT22;41061;52.822;6.860;2023-04-15T09:50:19;9.30;99.90
55173;DHT22;41061;52.822;6.860;2023-04-15T09:52:45;9.30;99.90
55173;DHT22;41061;52.822;6.860;2023-04-15T09:55:13;9.50;99.90
55173;DHT22;41061;52.822;6.860;2023-04-15T09:57:38;9.50;99.90
55173;DHT22;41061;52.822;6.860;2023-04-15T10:00:09;9.50;99.90
55173;DHT22;41061;52.822;6.860;2023-04-15T10:02:36;9.60;99.90
55173;DHT22;41061;52.822;6.860;2023-04-15T10:05:02;9.40;99.90
55173;DHT22;41061;52.822;6.860;2023-04-15T10:07:28;9.50;99.90
55173;DHT22;41061;52.822;6.860;2023-04-15T10:09:55;9.60;99.90
55173;DHT22;41061;52.822;6.860;2023-04-15T10:12:22;9.50;99.90
55173;DHT22;41061;52.822;6.860;2023-04-15T10:15:03;9.40;99.90
55173;DHT22;41061;52.822;6.860;2023-04-15T10:17:31;9.50;99.90
55173;DHT22;41061;52.822;6.860;2023-04-15T10:20:02;9.60;99.90
55173;DHT22;41061;52.822;6.860;2023-04-15T10:22:29;9.50;99.90
55173;DHT22;41061;52.822;6.860;2023-04-15T10:24:56;9.60;99.90
55173;DHT22;41061;52.822;6.860;2023-04-15T10:27:22;9.70;99.90
55173;DHT22;41061;52.822;6.860;2023-04-15T10:29:49;9.70;99.90
55173;DHT22;41061;52.822;6.860;2023-04-15T10:32:18;9.80;99.90
55173;DHT22;41061;52.822;6.860;2023-04-15T10:34:46;9.90;99.90
55173;DHT22;41061;52.822;6.860;2023-04-15T10:37:17;9.70;99.90
55173;DHT22;41061;52.822;6.860;2023-04-15T10:39:45;9.70;99.90
55173;DHT22;41061;52.822;6.860;2023-04-15T10:42:15;9.70;99.90
55173;DHT22;41061;52.822;6.860;2023-04-15T10:44:51;9.70;99.90
55173;DHT22;41061;52.822;6.860;2023-04-15T10:47:21;9.70;99.90
55173;DHT22;41061;52.822;6.860;2023-04-15T10:49:48;9.60;99.90
55173;DHT22;41061;52.822;6.860;2023-04-15T10:52:25;9.80;99.90
55173;DHT22;41061;52.822;6.860;2023-04-15T10:55:12;9.70;99.90
55173;DHT22;41061;52.822;6.860;2023-04-15T10:57:39;9.90;99.90
55173;DHT22;41061;52.822;6.860;2023-04-15T11:05:07;9.80;99.90
55173;DHT22;41061;52.822;6.860;2023-04-15T11:07:36;9.70;99.90
55173;DHT22;41061;52.822;6.860;2023-04-15T11:12:42;9.70;99.90
55173;DHT22;41061;52.822;6.860;2023-04-15T11:17:55;9.70;99.90
55173;DHT22;41061;52.822;6.860;2023-04-15T11:20:22;9.80;99.90
55173;DHT22;41061;52.822;6.860;2023-04-15T11:22:52;9.90;99.90
55173;DHT22;41061;52.822;6.860;2023-04-15T11:25:29;9.80;99.90
55173;DHT22;41061;52.822;6.860;2023-04-15T11:27:55;9.80;99.90
55173;DHT22;41061;52.822;6.860;2023-04-15T11:30:24;10.00;99.90
55173;DHT22;41061;52.822;6.860;2023-04-15T11:32:54;9.90;99.90
55173;DHT22;41061;52.822;6.860;2023-04-15T11:35:22;9.90;99.90
55173;DHT22;41061;52.822;6.860;2023-04-15T11:37:48;10.00;99.90
55173;DHT22;41061;52.822;6.860;2023-04-15T11:40:21;10.10;99.90
55173;DHT22;41061;52.822;6.860;2023-04-15T11:43:06;9.90;99.90
55173;DHT22;41061;52.822;6.860;2023-04-15T11:45:32;10.00;99.90
55173;DHT22;41061;52.822;6.860;2023-04-15T11:48:09;10.00;99.90
55173;DHT22;41061;52.822;6.860;2023-04-15T11:50:36;10.10;99.90
55173;DHT22;41061;52.822;6.860;2023-04-15T11:53:06;9.90;99.90
55173;DHT22;41061;52.822;6.860;2023-04-15T11:58:21;9.90;99.90
55173;DHT22;41061;52.822;6.860;2023-04-15T12:00:57;9.70;99.90
55173;DHT22;41061;52.822;6.860;2023-04-15T12:11:19;10.00;99.90
55173;DHT22;41061;52.822;6.860;2023-04-15T12:13:49;10.30;99.90
55173;DHT22;41061;52.822;6.860;2023-04-15T12:16:19;10.00;99.90
55173;DHT22;41061;52.822;6.860;2023-04-15T12:18:47;9.90;99.90
55173;DHT22;41061;52.822;6.860;2023-04-15T12:21:15;10.00;99.90
55173;DHT22;41061;52.822;6.860;2023-04-15T12:23:48;10.00;99.90
55173;DHT22;41061;52.822;6.860;2023-04-15T12:26:17;9.80;99.90
55173;DHT22;41061;52.822;6.860;2023-04-15T12:28:43;9.80;99.90
55173;DHT22;41061;52.822;6.860;2023-04-15T12:31:10;9.70;99.90
55173;DHT22;41061;52.822;6.860;2023-04-15T12:33:36;9.60;99.90
55173;DHT22;41061;52.822;6.860;2023-04-15T12:36:03;9.60;99.90
55173;DHT22;41061;52.822;6.860;2023-04-15T12:38:29;9.60;99.90
55173;DHT22;41061;52.822;6.860;2023-04-15T12:40:57;9.60;99.90
55173;DHT22;41061;52.822;6.860;2023-04-15T12:43:24;9.70;99.90
55173;DHT22;41061;52.822;6.860;2023-04-15T12:45:49;9.70;99.90
55173;DHT22;41061;52.822;6.860;2023-04-15T12:48:15;9.70;99.90
55173;DHT22;41061;52.822;6.860;2023-04-15T12:50:41;9.60;99.90
55173;DHT22;41061;52.822;6.860;2023-04-15T12:53:07;9.70;99.90
55173;DHT22;41061;52.822;6.860;2023-04-15T12:55:33;10.00;99.90
55173;DHT22;41061;52.822;6.860;2023-04-15T12:57:59;9.60;99.90
55173;DHT22;41061;52.822;6.860;2023-04-15T13:00:25;9.70;99.90
55173;DHT22;41061;52.822;6.860;2023-04-15T13:02:53;9.70;99.90
55173;DHT22;41061;52.822;6.860;2023-04-15T13:05:19;9.50;99.90
55173;DHT22;41061;52.822;6.860;2023-04-15T13:07:45;9.50;99.90
55173;DHT22;41061;52.822;6.860;2023-04-15T13:10:10;9.50;99.90
55173;DHT22;41061;52.822;6.860;2023-04-15T13:12:36;9.30;99.90
55173;DHT22;41061;52.822;6.860;2023-04-15T13:15:03;9.40;99.90
55173;DHT22;41061;52.822;6.860;2023-04-15T13:17:29;9.30;99.90
55173;DHT22;41061;52.822;6.860;2023-04-15T13:19:55;9.40;99.90
55173;DHT22;41061;52.822;6.860;2023-04-15T13:22:21;9.30;99.90
55173;DHT22;41061;52.822;6.860;2023-04-15T13:24:47;9.30;99.90
55173;DHT22;41061;52.822;6.860;2023-04-15T13:27:13;9.30;99.90
55173;DHT22;41061;52.822;6.860;2023-04-15T13:29:38;9.20;99.90
55173;DHT22;41061;52.822;6.860;2023-04-15T13:32:05;9.40;99.90
55173;DHT22;41061;52.822;6.860;2023-04-15T13:34:31;9.20;99.90
55173;DHT22;41061;52.822;6.860;2023-04-15T13:36:57;9.40;99.90
55173;DHT22;41061;52.822;6.860;2023-04-15T13:39:22;9.30;99.90
55173;DHT22;41061;52.822;6.860;2023-04-15T13:41:48;9.60;99.90
55173;DHT22;41061;52.822;6.860;2023-04-15T13:44:14;9.20;99.90
55173;DHT22;41061;52.822;6.860;2023-04-15T13:46:42;9.20;99.90
55173;DHT22;41061;52.822;6.860;2023-04-15T13:49:08;9.30;99.90
55173;DHT22;41061;52.822;6.860;2023-04-15T13:51:34;9.40;99.90
55173;DHT22;41061;52.822;6.860;2023-04-15T13:54:01;9.50;99.90
55173;DHT22;41061;52.822;6.860;2023-04-15T13:56:29;9.40;99.90
55173;DHT22;41061;52.822;6.860;2023-04-15T13:58:55;9.30;99.90
55173;DHT22;41061;52.822;6.860;2023-04-15T14:01:24;9.30;99.90
55173;DHT22;41061;52.822;6.860;2023-04-15T14:03:50;9.20;99.90
55173;DHT22;41061;52.822;6.860;2023-04-15T14:06:16;9.20;99.90
55173;DHT22;41061;52.822;6.860;2023-04-15T14:08:41;9.30;99.90
55173;DHT22;41061;52.822;6.860;2023-04-15T14:11:07;9.20;99.90
55173;DHT22;41061;52.822;6.860;2023-04-15T14:13:33;9.20;99.90
55173;DHT22;41061;52.822;6.860;2023-04-15T14:15:58;9.10;99.90
55173;DHT22;41061;52.822;6.860;2023-04-15T14:18:24;9.20;99.90
55173;DHT22;41061;52.822;6.860;2023-04-15T14:20:50;9.10;99.90
55173;DHT22;41061;52.822;6.860;2023-04-15T14:23:16;9.10;99.90
55173;DHT22;41061;52.822;6.860;2023-04-15T14:25:41;9.20;99.90
55173;DHT22;41061;52.822;6.860;2023-04-15T14:28:07;9.30;99.90
55173;DHT22;41061;52.822;6.860;2023-04-15T14:30:33;9.40;99.90
55173;DHT22;41061;52.822;6.860;2023-04-15T14:32:59;9.10;99.90
55173;DHT22;41061;52.822;6.860;2023-04-15T14:35:24;9.10;99.90
55173;DHT22;41061;52.822;6.860;2023-04-15T14:37:52;9.10;99.90
55173;DHT22;41061;52.822;6.860;2023-04-15T14:40:18;9.30;99.90
55173;DHT22;41061;52.822;6.860;2023-04-15T14:42:47;8.90;99.90
55173;DHT22;41061;52.822;6.860;2023-04-15T14:45:13;9.00;99.90
55173;DHT22;41061;52.822;6.860;2023-04-15T14:47:38;9.00;99.90
55173;DHT22;41061;52.822;6.860;2023-04-15T14:50:04;9.10;99.90
55173;DHT22;41061;52.822;6.860;2023-04-15T14:52:31;8.90;99.90
55173;DHT22;41061;52.822;6.860;2023-04-15T14:55:07;8.90;99.90
55173;DHT22;41061;52.822;6.860;2023-04-15T14:57:35;8.90;99.90
55173;DHT22;41061;52.822;6.860;2023-04-15T15:00:02;9.20;99.90
55173;DHT22;41061;52.822;6.860;2023-04-15T15:02:28;8.80;99.90
55173;DHT22;41061;52.822;6.860;2023-04-15T15:04:56;8.90;99.90
55173;DHT22;41061;52.822;6.860;2023-04-15T15:07:22;8.90;99.90
55173;DHT22;41061;52.822;6.860;2023-04-15T15:09:51;8.90;99.90
55173;DHT22;41061;52.822;6.860;2023-04-15T15:12:16;9.30;99.90
55173;DHT22;41061;52.822;6.860;2023-04-15T15:14:42;8.90;99.90
55173;DHT22;41061;52.822;6.860;2023-04-15T15:17:08;8.90;99.90
55173;DHT22;41061;52.822;6.860;2023-04-15T15:19:34;9.00;99.90
55173;DHT22;41061;52.822;6.860;2023-04-15T15:22:00;8.80;99.90
55173;DHT22;41061;52.822;6.860;2023-04-15T15:24:26;9.00;99.90
55173;DHT22;41061;52.822;6.860;2023-04-15T15:26:51;8.90;99.90
55173;DHT22;41061;52.822;6.860;2023-04-15T15:29:17;8.90;99.90
55173;DHT22;41061;52.822;6.860;2023-04-15T15:31:43;8.90;99.90
55173;DHT22;41061;52.822;6.860;2023-04-15T15:34:08;9.00;99.90
55173;DHT22;41061;52.822;6.860;2023-04-15T15:36:34;8.90;99.90
55173;DHT22;41061;52.822;6.860;2023-04-15T15:39:00;8.80;99.90
55173;DHT22;41061;52.822;6.860;2023-04-15T15:41:25;8.90;99.90
55173;DHT22;41061;52.822;6.860;2023-04-15T15:43:52;9.00;99.90
55173;DHT22;41061;52.822;6.860;2023-04-15T15:46:18;8.90;99.90
55173;DHT22;41061;52.822;6.860;2023-04-15T15:48:44;8.90;99.90
55173;DHT22;41061;52.822;6.860;2023-04-15T15:51:10;8.90;99.90
55173;DHT22;41061;52.822;6.860;2023-04-15T15:53:35;8.90;99.90
55173;DHT22;41061;52.822;6.860;2023-04-15T15:56:01;8.70;99.90
55173;DHT22;41061;52.822;6.860;2023-04-15T15:58:29;8.80;99.90
55173;DHT22;41061;52.822;6.860;2023-04-15T16:00:55;8.60;99.90
55173;DHT22;41061;52.822;6.860;2023-04-15T16:03:22;9.00;99.90
55173;DHT22;41061;52.822;6.860;2023-04-15T16:05:48;8.70;99.90
55173;DHT22;41061;52.822;6.860;2023-04-15T16:08:14;8.80;99.90
55173;DHT22;41061;52.822;6.860;2023-04-15T16:10:40;8.80;99.90
55173;DHT22;41061;52.822;6.860;2023-04-15T16:13:06;8.80;99.90
55173;DHT22;41061;52.822;6.860;2023-04-15T16:15:32;8.90;99.90
55173;DHT22;41061;52.822;6.860;2023-04-15T16:17:59;9.20;99.90
55173;DHT22;41061;52.822;6.860;2023-04-15T16:20:25;8.90;99.90
55173;DHT22;41061;52.822;6.860;2023-04-15T16:22:51;8.80;99.90
55173;DHT22;41061;52.822;6.860;2023-04-15T16:25:16;8.90;99.90
55173;DHT22;41061;52.822;6.860;2023-04-15T16:27:42;8.70;99.90
55173;DHT22;41061;52.822;6.860;2023-04-15T16:30:09;8.80;99.90
55173;DHT22;41061;52.822;6.860;2023-04-15T16:32:35;8.70;99.90
55173;DHT22;41061;52.822;6.860;2023-04-15T16:35:02;8.90;99.90
55173;DHT22;41061;52.822;6.860;2023-04-15T16:37:27;8.60;99.90
55173;DHT22;41061;52.822;6.860;2023-04-15T16:39:54;9.00;99.90
55173;DHT22;41061;52.822;6.860;2023-04-15T16:42:19;8.90;99.90
55173;DHT22;41061;52.822;6.860;2023-04-15T16:44:45;8.60;99.90
55173;DHT22;41061;52.822;6.860;2023-04-15T16:47:11;8.80;99.90